默认 日期 大小 文件数 浏览量 最新下载 xml
radar磁力链接相关资源由用户搜索指令自动获取,结果来源于网络,本站不存储任何资料,亦不承担任何责任,请于24小时内删除,搜索到970个磁力,用时1ms。
    ... .txt": 2982, "Doc At The Radar Station.iso": 1679996928, "Captain Beefheart ... - Doc At The Radar Station.md5": 1275, "Captain Beefheart ... - Doc At The Radar Station.sfv": 320}
创建时间: 2018-10-28 11:41:19 大小:1.58 GB 文件数量:23 热度:51 最近下载:2025-10-02 09:43:01
    ... ": 2920456}, "dumpserial.exe": 2920456, "fs2004 - radar contact.txt": 1223}, "updates": {"update ...
创建时间: 2018-10-29 04:42:42 大小:696.24 MB 文件数量:25 热度:19 最近下载:2025-09-13 18:11:01
    ... 98.flac": 12616666}, "Arab On Radar - 1997 - Queen Hygiene II": ... 16503074, "02 - Arab On Radar - Cocaine Mummy.flac": 21407298, ... 27944656, "08 - Arab On Radar - Birth Control Blues.flac": 32990629 ... .flac": 15141786}, "Arab On Radar - 2003 - The Stolen Singles ...
创建时间: 2018-10-29 14:24:30 大小:1.18 GB 文件数量:104 热度:34 最近下载:2025-07-31 23:52:06
    ... Covers": {"Robbie Williams - Under The Radar Vol. 2 (2017)_cd-dl- ... 114858, "Robbie Williams - Under The Radar Vol. 2 (2017)_dd-dl ... 7102285, "Robbie Williams - Under The Radar Vol. 2 (2017)_cd-dl ... "00. Robbie Williams - Under The Radar Vol. 2 (2017).m3u": 1086 ...
创建时间: 2018-10-30 02:14:39 大小:382.88 MB 文件数量:21 热度:24 最近下载:2025-08-06 02:09:02
    {"Readme.txt": 3898, "TomTom Europe.jpg": 54996, "Torrent downloaded from Demonoid.com.txt": 47, "iPhone TomTom Europe 1.5 Radar Safety Speed Cameras Map 8.60.3102.ipa": 2147252787}
创建时间: 2018-10-30 20:06:35 大小:2 GB 文件数量:4 热度:45 最近下载:2025-08-16 21:29:02
    {"MVR": {"Пример маневрирования.mvr": 34657}, "EXERCISE": {"pcg.set": 646, "sk0.pcg": 1211}, "Radar.chm": 219785, "Radar.exe": 1540096, "Radar.mtd": 11905, "LICENSE.TXT": 1784}
创建时间: 2018-10-31 00:35:05 大小:1.73 MB 文件数量:7 热度:31 最近下载:2025-10-12 08:40:02
    {"JMA-5300mk2_instruction_manual.pdf": 11094389}
创建时间: 2018-10-31 08:29:05 大小:10.58 MB 文件数量:1 热度:18 最近下载:2025-07-28 07:57:02
    {"Cover.png": 344407, "01. Bully.mp3": 6780058, "02. Raver.mp3": 7879291, "03. H.E.S..mp3": 7339290, "14. Bullet.mp3": 7677001, "00. PlayList.m3u": 261, "04. The Edge.mp3": 8277194, "05. Climb On.mp3": 9164104, "08. The Cure.mp3": 8349083, "06. Surrender. ...
创建时间: 2018-10-31 08:42:55 大小:112.94 MB 文件数量:17 热度:17 最近下载:2025-08-06 14:34:02
    {"11 Echos.mp3": 9853303, "01 Konica.mp3": 7488699, "04 Missions.mp3": 6361254, "09 Cover Up.mp3": 7132389, "02 Destroyer.mp3": 8094740, "05 Star Dust.mp3": 7942184, "03 Magic Hearts.mp3": 7442723, "07 Cold Winters.mp3": 9392503, "1352240217_cover.jpg": ...
创建时间: 2018-10-31 12:26:13 大小:97.82 MB 文件数量:13 热度:13 最近下载:2025-08-02 03:41:03
    {"More Books.txt": 2922, "Important. Read me .url": 238, "Torrent downloaded from Demonoid.com.txt": 49, "Barton - Radar Technology Encyclopedia (Artech, 1998).pdf": 9765736, "Basic Electronics Components And Hardware - I (CFS, 1999) WW.pdf": 3764790}
创建时间: 2018-10-31 13:08:01 大小:12.91 MB 文件数量:5 热度:29 最近下载:2025-08-05 15:03:02
    {"far2xx7_operators_manual.pdf": 4129145}
创建时间: 2018-10-31 15:58:06 大小:3.94 MB 文件数量:1 热度:19 最近下载:2025-08-02 15:34:05
    {"read me.txt": 185, "read help.doc": 6341120, "RADAR10.part01.exe": 204472320, "RADAR10.part02.rar": 204472320, "RADAR10.part03.rar": 204472320, "RADAR10.part04.rar": 204472320, "RADAR10.part05.rar": 204472320, "RADAR10.part06.rar": 204472320, "RADAR10. ...
创建时间: 2018-10-31 16:21:48 大小:1.82 GB 文件数量:12 热度:14 最近下载:2025-06-12 10:56:02
    {"1996.jpg": 8016, "04. Stay.mp3": 9954203, "12. Goddess.mp3": 9499529, "10. This Drive.mp3": 6159373, "11. Take Stuff.mp3": 7406585, "02. Capital Gain.mp3": 9111299, "06. On The Floor.mp3": 6821035, "08. Distant Mine.mp3": 9944353, "07. We're Over Here. ...
创建时间: 2018-10-31 18:05:40 大小:93.12 MB 文件数量:13 热度:10 最近下载:2023-04-02 06:10:02
    {"09. Numb.mp3": 9782705, "04. Bambi.mp3": 8154756, "02. 9 to 5.mp3": 8904995, "12. Weakness.mp3": 10290535, "03. Ms Pepper.mp3": 9762862, "01. Satellites.mp3": 9932137, "13. Booty Call.mp3": 7145397, "08. Run It Wild.mp3": 8964564, "10. Andy Warhol.mp3": ...
创建时间: 2018-10-31 18:28:21 大小:128.76 MB 文件数量:15 热度:14 最近下载:2025-08-02 07:46:01
    ... .flac": 31293649, "On Your Radar.cue": 2668, "13 - I ... 28954828, "The Saturdays - On Your Radar.jpg": 145603, "The Saturdays - ... On Your Radar.log": 15062, "The Saturdays - ... On Your Radar.m3u": 1003, "08 - Do ...
创建时间: 2018-10-31 21:05:08 大小:376.49 MB 文件数量:18 热度:14 最近下载:2023-04-02 15:40:03
    {"08-daniel_powter-fly_away.mp3": 5187844, "01-daniel_powter-best_of_me.mp3": 5462241, "09-daniel_powter-beauty_queen.mp3": 4661533, "02-daniel_powter-not_coming_back.mp3": 6103143, "04-daniel_powter-next_plane_home.mp3": 4664782, "11-daniel_powter- ...
创建时间: 2018-11-01 00:17:32 大小:61.19 MB 文件数量:17 热度:17 最近下载:2025-01-20 10:54:05
    {"far3000_operators_manual.pdf": 37604529}
创建时间: 2018-11-01 16:59:58 大小:35.86 MB 文件数量:1 热度:18 最近下载:2025-08-08 13:41:03
    {"Covers": {"Robbie Williams - Under The Radar Vol. 1 (2014)_cd-front. ... , "00. Robbie Williams - Under The Radar Vol. 1 (2014).m3u": 861}
创建时间: 2018-11-02 04:45:23 大小:373.51 MB 文件数量:19 热度:14 最近下载:2023-04-07 02:40:02
    {"2016 - Decadence": {"cover.jpg": 120575, "01. Decadence.mp3": 22563240}, "2012 - Echo Forever": {"cover.jpg": 58736, "04. Darkness.mp3": 17856834, "01. Echo Forever.mp3": 17691748, "02. Atomic Mother.mp3": 19973807, "07. Avant-Garde Luxury.mp3": 26668478 ...
创建时间: 2018-11-02 09:36:02 大小:678.68 MB 文件数量:44 热度:14 最近下载:2025-04-30 03:21:01
    {"eh221w.exe": 39140236, "Radar 10.0.028": {"readme.txt": ... .x & EH 2.x patch": {"radar 10.5 & eh2.2": {"EH2 ... from Demonoid.com.txt": 47}, "radar 10.5+ eh2.2.torrent ... ": 11037}, "RADAR 10.x update to 10 ... 2.2.1.txt": 1285, "RADAR 10.0.012 update to ...
创建时间: 2018-11-02 21:04:27 大小:2.05 GB 文件数量:33 热度:20 最近下载:2025-09-17 15:20:01